createdAt,value
2018-08-24T00:00:24.580Z,59.92
2018-08-24T00:02:53.552Z,60.54
2018-08-24T00:05:22.512Z,60.28
2018-08-24T00:07:51.183Z,59.94
2018-08-24T00:10:19.933Z,59.85
2018-08-24T00:12:49.322Z,60.20
2018-08-24T00:15:18.766Z,59.81
2018-08-24T00:17:48.197Z,59.68
2018-08-24T00:20:17.029Z,59.90
2018-08-24T00:22:46.327Z,60.56
2018-08-24T00:25:15.904Z,60.38
2018-08-24T00:27:44.837Z,60.49
2018-08-24T00:30:13.714Z,60.96
2018-08-24T00:32:42.703Z,60.34
2018-08-24T00:35:11.582Z,61.20
2018-08-24T00:37:40.434Z,60.63
2018-08-24T00:40:09.365Z,61.30
2018-08-24T00:42:38.144Z,61.75
2018-08-24T00:45:06.998Z,61.55
2018-08-24T00:47:36.052Z,61.58
2018-08-24T00:50:05.516Z,61.75
2018-08-24T00:52:34.212Z,61.61
2018-08-24T00:55:02.884Z,61.83
2018-08-24T00:57:32.139Z,62.16
2018-08-24T01:00:00.938Z,61.51
2018-08-24T01:02:29.717Z,62.43
2018-08-24T01:04:58.709Z,61.83
2018-08-24T01:07:27.602Z,61.72
2018-08-24T01:09:56.395Z,61.49
2018-08-24T01:12:25.158Z,61.29
2018-08-24T01:14:54.066Z,61.52
2018-08-24T01:17:28.175Z,61.72
2018-08-24T01:19:57.022Z,61.24
2018-08-24T01:22:25.962Z,62.02
2018-08-24T01:24:54.738Z,61.60
2018-08-24T01:27:23.404Z,61.94
2018-08-24T01:29:52.114Z,61.96
2018-08-24T01:32:20.726Z,61.17
2018-08-24T01:34:49.423Z,61.60
2018-08-24T01:37:18.612Z,61.80
2018-08-24T01:39:47.532Z,62.09
2018-08-24T01:42:16.251Z,63.15
2018-08-24T01:44:45.862Z,63.51
2018-08-24T01:47:14.977Z,63.24
2018-08-24T01:49:44.738Z,63.43
2018-08-24T01:52:13.687Z,63.26
2018-08-24T01:54:42.616Z,63.15
2018-08-24T01:57:11.588Z,63.40
2018-08-24T01:59:40.307Z,63.63
2018-08-24T02:02:09.194Z,63.03
2018-08-24T02:04:38.078Z,63.78
2018-08-24T02:07:06.814Z,64.09
2018-08-24T02:09:35.501Z,63.84
2018-08-24T02:12:04.266Z,64.16
2018-08-24T02:14:40.730Z,64.36
2018-08-24T02:17:14.858Z,63.89
2018-08-24T02:19:50.144Z,64.77
2018-08-24T02:22:20.932Z,65.28
2018-08-24T02:24:53.553Z,64.87
2018-08-24T02:27:26.445Z,65.12
2018-08-24T02:29:58.456Z,65.24
2018-08-24T02:32:30.044Z,66.08
2018-08-24T02:35:00.848Z,66.23
2018-08-24T02:37:30.566Z,65.89
2018-08-24T02:39:59.262Z,66.51
2018-08-24T02:42:27.961Z,67.05
2018-08-24T02:44:56.755Z,66.43
2018-08-24T02:47:25.682Z,67.78
2018-08-24T02:49:54.418Z,67.40
2018-08-24T02:52:23.255Z,67.66
2018-08-24T02:54:51.995Z,67.48
2018-08-24T02:57:21.337Z,67.95
2018-08-24T02:59:50.081Z,68.57
2018-08-24T03:02:18.824Z,68.51
2018-08-24T03:04:48.375Z,68.53
2018-08-24T03:07:17.366Z,69.40
2018-08-24T03:09:46.212Z,69.39
2018-08-24T03:12:15.061Z,69.53
2018-08-24T03:14:43.942Z,69.94
2018-08-24T03:17:17.720Z,70.22
2018-08-24T03:19:46.467Z,70.36
2018-08-24T03:22:15.255Z,70.28
2018-08-24T03:24:44.023Z,70.91
2018-08-24T03:27:12.763Z,71.64
2018-08-24T03:29:41.541Z,71.46
2018-08-24T03:32:10.231Z,71.38
2018-08-24T03:34:38.964Z,72.05
2018-08-24T03:37:07.910Z,71.34
2018-08-24T03:39:36.592Z,71.74
2018-08-24T03:42:05.354Z,71.83
2018-08-24T03:44:34.020Z,71.91
2018-08-24T03:47:02.783Z,72.08
2018-08-24T03:49:31.520Z,72.88
2018-08-24T03:52:00.253Z,72.50
2018-08-24T03:54:28.932Z,72.46
2018-08-24T03:56:58.675Z,72.19
2018-08-24T03:59:27.785Z,71.85
2018-08-24T04:01:57.078Z,71.73
2018-08-24T04:04:26.058Z,72.36
2018-08-24T04:06:54.779Z,71.95
2018-08-24T04:09:23.539Z,72.73
2018-08-24T04:11:52.219Z,72.95
2018-08-24T04:14:20.894Z,71.99
2018-08-24T04:16:54.796Z,69.69
2018-08-24T04:19:29.298Z,69.03
2018-08-24T04:21:58.558Z,67.77
2018-08-24T04:24:27.183Z,66.86
2018-08-24T04:26:56.722Z,66.61
2018-08-24T04:29:25.834Z,65.33
2018-08-24T04:31:54.566Z,64.51
2018-08-24T04:34:23.303Z,63.73
2018-08-24T04:36:52.014Z,62.56
2018-08-24T04:39:20.717Z,63.45
2018-08-24T04:41:49.476Z,63.35
2018-08-24T04:44:18.198Z,63.15
2018-08-24T04:46:46.983Z,61.86
2018-08-24T04:49:15.724Z,61.88
2018-08-24T04:51:44.431Z,61.98
2018-08-24T04:54:13.185Z,62.11
2018-08-24T04:56:41.909Z,62.13
2018-08-24T04:59:10.627Z,61.08
2018-08-24T05:01:39.270Z,63.14
2018-08-24T05:04:07.950Z,62.86
2018-08-24T05:06:36.586Z,63.74
2018-08-24T05:09:08.606Z,63.17
2018-08-24T05:11:37.993Z,62.53
2018-08-24T05:14:06.908Z,61.55
2018-08-24T05:16:35.674Z,60.16
2018-08-24T05:19:04.462Z,59.80
2018-08-24T05:21:33.233Z,59.46
2018-08-24T05:24:02.146Z,59.57
2018-08-24T05:26:30.828Z,58.38
2018-08-24T05:28:59.525Z,57.90
2018-08-24T05:31:28.304Z,57.80
2018-08-24T05:33:57.031Z,56.75
2018-08-24T05:36:25.861Z,55.52
2018-08-24T05:38:54.541Z,54.47
2018-08-24T05:41:23.382Z,55.02
2018-08-24T05:43:52.065Z,54.31
2018-08-24T05:46:20.742Z,54.20
2018-08-24T05:48:49.561Z,53.82
2018-08-24T05:51:18.234Z,52.35
2018-08-24T05:53:46.960Z,53.06
2018-08-24T05:56:15.638Z,53.60
2018-08-24T05:58:44.374Z,53.09
2018-08-24T06:01:13.179Z,52.62
2018-08-24T06:03:41.869Z,52.34
2018-08-24T06:06:10.622Z,50.65
2018-08-24T06:08:39.372Z,51.36
2018-08-24T06:11:08.135Z,51.80
2018-08-24T06:13:36.863Z,51.83
2018-08-24T06:16:05.537Z,49.88
2018-08-24T06:18:34.283Z,49.38
2018-08-24T06:21:02.988Z,48.98
2018-08-24T06:23:31.671Z,48.75
2018-08-24T06:26:00.427Z,48.17
2018-08-24T06:28:29.218Z,47.77
2018-08-24T06:30:58.047Z,48.56
2018-08-24T06:33:26.818Z,50.03
2018-08-24T06:35:55.657Z,48.91
2018-08-24T06:38:24.559Z,48.36
2018-08-24T06:40:53.386Z,47.28
2018-08-24T06:43:22.150Z,46.96
2018-08-24T06:45:50.927Z,46.59
2018-08-24T06:48:19.720Z,46.67
2018-08-24T06:50:48.452Z,46.57
2018-08-24T06:53:17.317Z,47.21
2018-08-24T06:55:46.102Z,46.42
2018-08-24T06:58:14.818Z,44.97
2018-08-24T07:00:44.017Z,44.93
2018-08-24T07:03:12.903Z,44.48
2018-08-24T07:05:41.672Z,43.26
2018-08-24T07:08:10.413Z,42.89
2018-08-24T07:10:39.100Z,41.24
2018-08-24T07:13:07.950Z,40.11
2018-08-24T07:15:36.704Z,40.57
2018-08-24T07:18:05.598Z,39.92
2018-08-24T07:20:34.441Z,40.17
2018-08-24T07:23:03.149Z,39.49
2018-08-24T07:25:31.913Z,38.18
2018-08-24T07:28:00.652Z,39.73
2018-08-24T07:30:29.450Z,39.90
2018-08-24T07:32:58.217Z,39.71
2018-08-24T07:35:26.982Z,39.27
2018-08-24T07:37:55.757Z,40.79
2018-08-24T07:40:24.524Z,40.15
2018-08-24T07:42:53.254Z,41.70
2018-08-24T07:45:22.098Z,41.19
2018-08-24T07:47:50.873Z,39.83
2018-08-24T07:50:19.738Z,39.03
2018-08-24T07:52:48.442Z,38.17
2018-08-24T07:55:17.227Z,38.97
2018-08-24T07:57:45.951Z,40.60
2018-08-24T08:00:16.066Z,39.83
2018-08-24T08:02:46.347Z,39.20
2018-08-24T08:05:15.591Z,39.81
2018-08-24T08:07:44.541Z,39.39
2018-08-24T08:10:13.233Z,39.12
2018-08-24T08:12:41.911Z,40.71
2018-08-24T08:15:11.416Z,38.99
2018-08-24T08:17:40.906Z,39.72
2018-08-24T08:20:10.519Z,39.19
2018-08-24T08:22:39.286Z,39.48
2018-08-24T08:25:08.213Z,38.07
2018-08-24T08:27:36.939Z,37.73
2018-08-24T08:30:07.320Z,37.63
2018-08-24T08:32:36.123Z,35.26
2018-08-24T08:35:04.927Z,36.53
2018-08-24T08:37:33.568Z,37.24
2018-08-24T08:40:03.449Z,36.90
2018-08-24T08:42:32.119Z,37.65
2018-08-24T08:45:01.135Z,38.62
2018-08-24T08:47:29.883Z,36.19
2018-08-24T08:49:58.547Z,36.05
2018-08-24T08:52:27.210Z,35.63
2018-08-24T08:54:55.890Z,34.15
2018-08-24T08:57:24.550Z,33.65
2018-08-24T08:59:53.305Z,32.45
2018-08-24T09:02:22.104Z,32.23
2018-08-24T09:04:50.905Z,33.34
2018-08-24T09:07:19.742Z,32.39
2018-08-24T09:09:48.497Z,31.76
2018-08-24T09:12:17.314Z,31.72
2018-08-24T09:14:46.040Z,30.86
2018-08-24T09:17:20.276Z,31.50
2018-08-24T09:19:54.270Z,31.28
2018-08-24T09:22:28.179Z,31.39
2018-08-24T09:25:02.002Z,32.70
2018-08-24T09:27:42.289Z,31.50
2018-08-24T09:30:11.043Z,33.48
2018-08-24T09:32:39.854Z,33.93
2018-08-24T09:35:08.458Z,33.31
2018-08-24T09:37:38.459Z,31.92
2018-08-24T09:40:07.969Z,31.54
2018-08-24T09:42:36.708Z,31.33
2018-08-24T09:45:05.828Z,32.09
2018-08-24T09:47:39.696Z,31.16
2018-08-24T09:50:13.587Z,32.30
2018-08-24T09:52:46.512Z,32.50
2018-08-24T09:55:15.310Z,32.04
2018-08-24T09:57:44.190Z,31.82
2018-08-24T10:00:13.283Z,31.57
2018-08-24T10:02:43.285Z,32.53
2018-08-24T10:05:17.282Z,32.04
2018-08-24T10:08:48.940Z,32.63
2018-08-24T10:11:17.655Z,32.42
2018-08-24T10:13:46.387Z,33.21
2018-08-24T10:16:15.508Z,32.69
2018-08-24T10:18:44.305Z,30.67
2018-08-24T10:21:13.014Z,31.41
2018-08-24T10:23:42.009Z,31.27
2018-08-24T10:26:11.408Z,32.31
2018-08-24T10:28:40.297Z,34.04
2018-08-24T10:31:09.067Z,34.97
2018-08-24T10:33:37.900Z,34.81
2018-08-24T10:36:06.628Z,35.21
2018-08-24T10:38:35.348Z,35.54
2018-08-24T10:41:04.127Z,35.30
2018-08-24T10:43:32.821Z,35.98
2018-08-24T10:46:01.539Z,34.29
2018-08-24T10:48:30.247Z,35.52
2018-08-24T10:50:59.018Z,36.74
2018-08-24T10:53:27.662Z,36.50
2018-08-24T10:55:56.339Z,35.49
2018-08-24T10:58:25.108Z,35.50
2018-08-24T11:00:53.995Z,34.39
2018-08-24T11:03:22.758Z,33.89
2018-08-24T11:05:51.502Z,33.74
2018-08-24T11:08:20.243Z,33.35
2018-08-24T11:10:49.026Z,34.01
2018-08-24T11:13:17.780Z,33.79
2018-08-24T11:15:49.775Z,32.54
2018-08-24T11:18:19.038Z,30.15
2018-08-24T11:20:47.791Z,30.40
2018-08-24T11:23:16.586Z,31.10
2018-08-24T11:25:45.266Z,29.99
2018-08-24T11:28:13.951Z,31.02
2018-08-24T11:30:42.867Z,30.75
2018-08-24T11:33:11.724Z,30.96
2018-08-24T11:35:40.386Z,30.53
2018-08-24T11:38:09.134Z,30.71
2018-08-24T11:40:37.883Z,29.54
2018-08-24T11:43:06.770Z,30.01
2018-08-24T11:45:35.543Z,29.31
2018-08-24T11:48:04.495Z,29.28
2018-08-24T11:50:33.266Z,29.42
2018-08-24T11:53:01.981Z,30.10
2018-08-24T11:55:30.673Z,30.87
2018-08-24T11:57:59.420Z,29.71
2018-08-24T12:00:30.471Z,28.43
2018-08-24T12:02:59.794Z,28.50
2018-08-24T12:05:28.712Z,26.61
2018-08-24T12:07:57.667Z,28.14
2018-08-24T12:10:26.459Z,28.81
2018-08-24T12:12:55.597Z,28.85
2018-08-24T12:15:24.374Z,30.23
2018-08-24T12:17:53.438Z,29.66
2018-08-24T12:20:22.153Z,30.29
2018-08-24T12:22:50.814Z,29.50
2018-08-24T12:25:19.460Z,30.65
2018-08-24T12:27:48.134Z,31.73
2018-08-24T12:30:16.817Z,31.56
2018-08-24T12:32:45.516Z,31.16
2018-08-24T12:35:14.165Z,31.57
2018-08-24T12:37:44.477Z,29.58
2018-08-24T12:40:13.566Z,30.97
2018-08-24T12:42:42.214Z,30.74
2018-08-24T12:45:10.940Z,31.81
2018-08-24T12:47:39.586Z,31.66
2018-08-24T12:50:08.856Z,30.96
2018-08-24T12:52:37.483Z,31.89
2018-08-24T12:55:06.298Z,31.45
2018-08-24T12:57:34.950Z,33.14
2018-08-24T13:00:04.877Z,32.43
2018-08-24T13:02:33.557Z,31.21
2018-08-24T13:05:02.195Z,34.31
2018-08-24T13:07:30.840Z,32.33
2018-08-24T13:09:59.503Z,31.50
2018-08-24T13:12:28.189Z,30.86
2018-08-24T13:14:56.898Z,32.60
2018-08-24T13:17:25.695Z,33.47
2018-08-24T13:19:54.355Z,35.90
2018-08-24T13:22:23.066Z,35.68
2018-08-24T13:24:51.698Z,35.41
2018-08-24T13:27:20.339Z,35.54
2018-08-24T13:29:49.050Z,36.19
2018-08-24T13:32:17.731Z,36.56
2018-08-24T13:34:46.387Z,36.65
2018-08-24T13:37:15.078Z,37.00
2018-08-24T13:39:43.779Z,36.39
2018-08-24T13:42:12.482Z,36.42
2018-08-24T13:44:41.148Z,36.45
2018-08-24T13:47:09.807Z,37.08
2018-08-24T13:49:38.520Z,35.56
2018-08-24T13:52:07.182Z,36.29
2018-08-24T13:54:35.865Z,36.09
2018-08-24T13:57:04.559Z,37.44
2018-08-24T13:59:33.425Z,38.22
2018-08-24T14:02:02.182Z,38.01
2018-08-24T14:04:30.875Z,37.29
2018-08-24T14:06:59.584Z,36.32
2018-08-24T14:09:28.270Z,37.68
2018-08-24T14:11:56.934Z,37.95
2018-08-24T14:14:25.570Z,37.91
2018-08-24T14:16:54.376Z,37.06
2018-08-24T14:19:23.065Z,38.90
2018-08-24T14:21:51.737Z,37.87
2018-08-24T14:24:20.386Z,37.54
2018-08-24T14:26:49.089Z,37.81
2018-08-24T14:29:17.795Z,37.72
2018-08-24T14:31:46.641Z,38.95
2018-08-24T14:34:15.278Z,38.10
2018-08-24T14:36:43.955Z,38.62
2018-08-24T14:39:12.875Z,37.96
2018-08-24T14:41:41.529Z,38.75
2018-08-24T14:44:10.290Z,38.77
2018-08-24T14:46:39.000Z,38.28
2018-08-24T14:49:07.711Z,38.70
2018-08-24T14:51:36.467Z,38.34
2018-08-24T14:54:05.137Z,38.40
2018-08-24T14:56:33.864Z,37.20
2018-08-24T14:59:02.554Z,38.02
2018-08-24T15:01:31.189Z,37.47
2018-08-24T15:04:00.758Z,38.62
2018-08-24T15:06:29.429Z,38.20
2018-08-24T15:08:58.095Z,38.48
2018-08-24T15:11:26.755Z,38.74
2018-08-24T15:13:55.486Z,39.11
2018-08-24T15:16:24.177Z,38.94
2018-08-24T15:18:52.851Z,38.70
2018-08-24T15:21:21.498Z,38.91
2018-08-24T15:23:50.114Z,38.90
2018-08-24T15:26:18.803Z,40.10
2018-08-24T15:28:47.562Z,39.57
2018-08-24T15:31:16.274Z,39.76
2018-08-24T15:33:44.878Z,39.73
2018-08-24T15:36:13.522Z,39.27
2018-08-24T15:38:42.248Z,39.96
2018-08-24T15:41:10.866Z,40.36
2018-08-24T15:43:39.499Z,40.22
2018-08-24T15:46:08.311Z,40.46
2018-08-24T15:48:37.006Z,40.46
2018-08-24T15:51:05.977Z,41.37
2018-08-24T15:53:34.666Z,41.56
2018-08-24T15:56:03.328Z,40.58
2018-08-24T15:58:32.027Z,40.72
2018-08-24T16:01:00.729Z,40.77
2018-08-24T16:03:29.372Z,40.25
2018-08-24T16:05:58.005Z,40.59
2018-08-24T16:08:26.646Z,40.93
2018-08-24T16:10:55.270Z,40.56
2018-08-24T16:13:23.946Z,40.39
2018-08-24T16:15:52.640Z,40.89
2018-08-24T16:18:24.178Z,41.23
2018-08-24T16:20:53.894Z,40.54
2018-08-24T16:23:22.616Z,40.51
2018-08-24T16:25:51.278Z,40.72
2018-08-24T16:28:20.284Z,40.55
2018-08-24T16:30:49.035Z,40.53
2018-08-24T16:33:18.417Z,41.35
2018-08-24T16:35:47.062Z,42.15
2018-08-24T16:38:16.234Z,43.07
2018-08-24T16:40:44.932Z,43.49
2018-08-24T16:43:14.224Z,42.87
2018-08-24T16:45:42.915Z,43.30
2018-08-24T16:48:11.587Z,43.67
2018-08-24T16:50:40.204Z,43.63
2018-08-24T16:53:08.854Z,44.07
2018-08-24T16:55:37.499Z,44.30
2018-08-24T16:58:06.306Z,44.26
2018-08-24T17:00:34.914Z,45.00
2018-08-24T17:03:03.591Z,45.04
2018-08-24T17:05:32.254Z,45.53
2018-08-24T17:08:00.871Z,45.49
2018-08-24T17:10:29.516Z,45.83
2018-08-24T17:12:58.300Z,45.96
2018-08-24T17:15:26.952Z,45.90
2018-08-24T17:17:55.600Z,46.27
2018-08-24T17:20:24.402Z,46.43
2018-08-24T17:22:53.056Z,46.45
2018-08-24T17:25:21.731Z,46.59
2018-08-24T17:27:50.392Z,46.93
2018-08-24T17:30:19.052Z,46.90
2018-08-24T17:32:47.726Z,46.93
2018-08-24T17:35:16.423Z,47.21
2018-08-24T17:37:45.124Z,47.41
2018-08-24T17:40:13.753Z,47.88
2018-08-24T17:42:42.448Z,48.07
2018-08-24T17:45:11.170Z,48.16
2018-08-24T17:47:39.872Z,48.44
2018-08-24T17:50:08.586Z,48.72
2018-08-24T17:52:37.902Z,48.87
2018-08-24T17:55:06.678Z,48.53
2018-08-24T17:57:35.298Z,48.51
2018-08-24T18:00:05.351Z,48.64
2018-08-24T18:02:34.125Z,49.20
2018-08-24T18:05:02.817Z,49.14
2018-08-24T18:07:31.500Z,50.18
2018-08-24T18:10:00.183Z,50.32
2018-08-24T18:12:28.802Z,50.79
2018-08-24T18:14:57.596Z,51.26
2018-08-24T18:17:26.241Z,51.25
2018-08-24T18:19:54.938Z,51.72
2018-08-24T18:22:23.665Z,51.01
2018-08-24T18:24:52.298Z,51.60
2018-08-24T18:27:21.090Z,52.26
2018-08-24T18:29:49.799Z,52.07
2018-08-24T18:32:18.399Z,51.72
2018-08-24T18:34:47.078Z,51.63
2018-08-24T18:37:15.831Z,51.95
2018-08-24T18:39:44.457Z,52.25
2018-08-24T18:42:13.079Z,52.50
2018-08-24T18:44:41.733Z,52.01
2018-08-24T18:47:10.595Z,52.67
2018-08-24T18:49:39.875Z,51.94
2018-08-24T18:52:08.599Z,51.70
2018-08-24T18:54:37.257Z,50.34
2018-08-24T18:57:06.051Z,49.77
2018-08-24T18:59:34.741Z,49.84
2018-08-24T19:02:03.725Z,47.98
2018-08-24T19:04:32.364Z,48.48
2018-08-24T19:07:01.083Z,48.72
2018-08-24T19:09:29.785Z,49.65
2018-08-24T19:12:03.728Z,49.92
2018-08-24T19:14:32.359Z,49.71
2018-08-24T19:17:01.142Z,50.73
2018-08-24T19:19:34.905Z,50.74
2018-08-24T19:22:04.590Z,50.65
2018-08-24T19:24:33.309Z,51.55
2018-08-24T19:27:01.994Z,49.95
2018-08-24T19:29:35.930Z,49.98
2018-08-24T19:32:04.630Z,49.27
2018-08-24T19:34:33.347Z,48.54
2018-08-24T19:37:02.035Z,49.77
2018-08-24T19:39:30.655Z,50.31
2018-08-24T19:42:04.353Z,49.99
2018-08-24T19:44:32.958Z,50.62
2018-08-24T19:47:01.608Z,51.17
2018-08-24T19:49:30.345Z,52.13
2018-08-24T19:51:59.025Z,51.88
2018-08-24T19:54:27.749Z,51.95
2018-08-24T19:57:00.494Z,52.22
2018-08-24T19:59:29.165Z,52.89
2018-08-24T20:01:57.762Z,54.49
2018-08-24T20:04:26.442Z,54.67
2018-08-24T20:07:00.202Z,54.78
2018-08-24T20:09:33.970Z,53.87
2018-08-24T20:12:02.726Z,53.90
2018-08-24T20:14:36.566Z,53.79
2018-08-24T20:17:10.402Z,54.30
2018-08-24T20:19:39.038Z,54.76
2018-08-24T20:22:09.630Z,54.13
2018-08-24T20:24:38.379Z,54.50
2018-08-24T20:27:06.974Z,54.95
2018-08-24T20:29:35.612Z,56.41
2018-08-24T20:32:04.305Z,55.93
2018-08-24T20:34:32.938Z,55.95
2018-08-24T20:37:01.558Z,56.88
2018-08-24T20:39:30.213Z,56.89
2018-08-24T20:41:58.914Z,56.93
2018-08-24T20:44:27.577Z,56.77
2018-08-24T20:46:56.226Z,57.59
2018-08-24T20:49:24.966Z,56.65
2018-08-24T20:51:53.682Z,57.62
2018-08-24T20:54:22.425Z,56.92
2018-08-24T20:56:51.096Z,57.66
2018-08-24T20:59:19.789Z,57.52
2018-08-24T21:01:48.437Z,57.84
2018-08-24T21:04:17.141Z,57.05
2018-08-24T21:06:45.849Z,57.51
2018-08-24T21:09:14.509Z,58.32
2018-08-24T21:11:43.150Z,57.58
2018-08-24T21:14:11.795Z,57.75
2018-08-24T21:16:40.550Z,57.26
2018-08-24T21:19:09.174Z,57.89
2018-08-24T21:21:38.098Z,58.38
2018-08-24T21:24:07.154Z,57.58
2018-08-24T21:26:35.819Z,58.01
2018-08-24T21:29:04.543Z,58.13
2018-08-24T21:31:33.163Z,58.06
2018-08-24T21:34:01.776Z,57.52
2018-08-24T21:36:30.402Z,58.30
2018-08-24T21:38:59.025Z,57.55
2018-08-24T21:41:27.704Z,57.28
2018-08-24T21:43:56.388Z,57.01
2018-08-24T21:46:25.047Z,57.44
2018-08-24T21:48:53.671Z,56.81
2018-08-24T21:51:23.127Z,56.62
2018-08-24T21:53:51.758Z,56.95
2018-08-24T21:56:20.413Z,56.46
2018-08-24T21:58:49.050Z,56.46
2018-08-24T22:01:17.783Z,56.63
2018-08-24T22:03:46.378Z,56.04
2018-08-24T22:06:15.017Z,56.01
2018-08-24T22:08:43.638Z,56.43
2018-08-24T22:11:12.404Z,57.16
2018-08-24T22:13:41.099Z,56.67
2018-08-24T22:16:09.716Z,56.60
2018-08-24T22:18:38.357Z,57.35
2018-08-24T22:21:07.055Z,56.63
2018-08-24T22:23:35.687Z,57.10
2018-08-24T22:26:04.323Z,57.45
2018-08-24T22:28:33.009Z,56.64
2018-08-24T22:31:01.703Z,56.90
2018-08-24T22:33:30.360Z,56.75
2018-08-24T22:35:59.678Z,57.28
2018-08-24T22:38:28.422Z,57.31
2018-08-24T22:40:57.142Z,56.76
2018-08-24T22:43:31.066Z,57.45
2018-08-24T22:45:59.860Z,57.15
2018-08-24T22:48:28.591Z,57.81
2018-08-24T22:50:57.300Z,57.63
2018-08-24T22:53:25.994Z,58.12
2018-08-24T22:55:54.696Z,58.33
2018-08-24T22:58:23.417Z,58.04
2018-08-24T23:00:52.116Z,58.35
2018-08-24T23:03:20.851Z,58.23
2018-08-24T23:05:49.525Z,58.28
2018-08-24T23:08:18.225Z,58.96
2018-08-24T23:10:46.981Z,60.16
2018-08-24T23:13:15.652Z,60.65
2018-08-24T23:15:44.365Z,60.46
2018-08-24T23:18:13.064Z,60.80
2018-08-24T23:20:41.872Z,61.63
2018-08-24T23:23:10.567Z,61.37
2018-08-24T23:25:39.267Z,62.52
2018-08-24T23:28:07.962Z,63.94
2018-08-24T23:30:36.674Z,64.18
2018-08-24T23:33:05.555Z,63.63
2018-08-24T23:35:34.239Z,63.54
2018-08-24T23:38:02.952Z,63.41
2018-08-24T23:40:31.700Z,62.82
2018-08-24T23:43:00.414Z,63.46
2018-08-24T23:45:29.147Z,63.30
2018-08-24T23:47:57.837Z,63.10
2018-08-24T23:50:26.527Z,63.82
2018-08-24T23:52:55.255Z,63.07
2018-08-24T23:55:24.079Z,62.31
2018-08-24T23:57:52.856Z,62.94
